This is the latest recevied weather packets stored in our database for station/object PY2FLB-13. If no packets are shown the sender has not sent any weather packets the latest 10 day(s).
| Time | Temp. | Humidity | Pressure | Rain* | Wind** | Luminosity | Snow |
|---|---|---|---|---|---|---|---|
| 1777918335 | 30° C | 37% | 1012.9 hPa | - | - | - | - |
| 1777918035 | 30° C | 37% | 1012.9 hPa | - | - | - | - |
| 1777917735 | 30° C | 37% | 1012.9 hPa | - | - | - | - |
| 1777917435 | 30° C | 37% | 1012.9 hPa | - | - | - | - |
| 1777917135 | 29.44° C | 38% | 1013 hPa | - | - | - | - |
| 1777916835 | 30° C | 36% | 1013 hPa | - | - | - | - |
| 1777916535 | 30.56° C | 36% | 1012.9 hPa | - | - | - | - |
| 1777916235 | 30° C | 37% | 1013.1 hPa | - | - | - | - |
| 1777915935 | 29.44° C | 37% | 1013.3 hPa | - | - | - | - |
| 1777915635 | 30° C | 37% | 1013.3 hPa | - | - | - | - |
| 1777915335 | 28.89° C | 39% | 1013.6 hPa | - | - | - | - |
| 1777915035 | 29.44° C | 40% | 1013.6 hPa | - | - | - | - |
| 1777914735 | 28.89° C | 41% | 1013.7 hPa | - | - | - | - |
| 1777914435 | 28.89° C | 41% | 1013.9 hPa | - | - | - | - |
| 1777914135 | 29.44° C | 39% | 1013.7 hPa | - | - | - | - |
| 1777913835 | 30° C | 38% | 1013.6 hPa | - | - | - | - |
| 1777913535 | 30° C | 38% | 1013.8 hPa | - | - | - | - |
| 1777913235 | 28.89° C | 40% | 1014 hPa | - | - | - | - |
| 1777912935 | 29.44° C | 40% | 1014.1 hPa | - | - | - | - |
| 1777912635 | 29.44° C | 40% | 1014.1 hPa | - | - | - | - |
| 1777912335 | 29.44° C | 40% | 1014.2 hPa | - | - | - | - |
| 1777912035 | 29.44° C | 40% | 1014.2 hPa | - | - | - | - |
| 1777911735 | 29.44° C | 41% | 1014.3 hPa | - | - | - | - |
| 1777911435 | 29.44° C | 41% | 1014.3 hPa | - | - | - | - |
| 1777911135 | 28.33° C | 43% | 1014.6 hPa | - | - | - | - |
* Rain since midnight (hover to see other rain measurements)
** Current wind speed in m/s (hover to see current wind gust speed)